Harmonyville, Vermont
Current Conditions -  °F | °C
As of 7:54 PM on Wednesday 17 Dec 2014 (Local Time) from KVSF Reporting Station
Overcast Overcast  
Wind Chill: 35°   Ceiling: 2300
Heat Index: 35°   Visibility: 8mi
Dew Point: 34°   Wind: 0mph
Humidity: 96%   Direction: NA
Pressure: 29.74"   Gusts: NA
Location:  43.0642°N, 72.6668°W
Report Text: KVSF 180054Z AUTO 00000KT 8SM BKN023 OVC029 02/01 A2974 RMK AO2 SLP079 T00170011 TSNO
Loading
Personal Weather Stations






























Interactive Weather Map New forecast layout! Learn more

10-Day Weather Forecast

Advertisements
Track Severe Weather on mobile